sensor_id;sensor_type;location;lat;lon;timestamp;P1;durP1;ratioP1;P2;durP2;ratioP2
49177;SDS011;35016;55.674;37.468;2024-03-25T00:00:23;1.75;;;0.70;;
49177;SDS011;35016;55.674;37.468;2024-03-25T00:02:51;0.88;;;0.40;;
49177;SDS011;35016;55.674;37.468;2024-03-25T00:05:17;2.40;;;0.60;;
49177;SDS011;35016;55.674;37.468;2024-03-25T00:07:51;1.92;;;0.50;;
49177;SDS011;35016;55.674;37.468;2024-03-25T00:10:18;0.98;;;0.40;;
49177;SDS011;35016;55.674;37.468;2024-03-25T00:12:47;1.20;;;0.43;;
49177;SDS011;35016;55.674;37.468;2024-03-25T00:15:19;0.95;;;0.35;;
49177;SDS011;35016;55.674;37.468;2024-03-25T00:17:49;0.63;;;0.38;;
49177;SDS011;35016;55.674;37.468;2024-03-25T00:20:16;1.38;;;0.40;;
49177;SDS011;35016;55.674;37.468;2024-03-25T00:22:42;0.55;;;0.40;;
49177;SDS011;35016;55.674;37.468;2024-03-25T00:25:08;1.35;;;0.20;;
49177;SDS011;35016;55.674;37.468;2024-03-25T00:27:34;0.98;;;0.50;;
49177;SDS011;35016;55.674;37.468;2024-03-25T00:30:01;0.88;;;0.45;;
49177;SDS011;35016;55.674;37.468;2024-03-25T00:32:33;0.55;;;0.32;;
49177;SDS011;35016;55.674;37.468;2024-03-25T00:34:59;0.73;;;0.28;;
49177;SDS011;35016;55.674;37.468;2024-03-25T00:37:25;0.40;;;0.20;;
49177;SDS011;35016;55.674;37.468;2024-03-25T00:39:51;0.40;;;0.30;;
49177;SDS011;35016;55.674;37.468;2024-03-25T00:42:18;1.33;;;0.47;;
49177;SDS011;35016;55.674;37.468;2024-03-25T00:44:44;0.70;;;0.30;;
49177;SDS011;35016;55.674;37.468;2024-03-25T00:47:10;0.82;;;0.45;;
49177;SDS011;35016;55.674;37.468;2024-03-25T00:49:36;1.00;;;0.40;;
49177;SDS011;35016;55.674;37.468;2024-03-25T00:52:02;0.52;;;0.38;;
49177;SDS011;35016;55.674;37.468;2024-03-25T00:54:28;0.57;;;0.30;;
49177;SDS011;35016;55.674;37.468;2024-03-25T00:56:54;0.45;;;0.30;;
49177;SDS011;35016;55.674;37.468;2024-03-25T00:59:20;0.95;;;0.57;;
49177;SDS011;35016;55.674;37.468;2024-03-25T01:01:47;0.95;;;0.35;;
49177;SDS011;35016;55.674;37.468;2024-03-25T01:04:13;0.85;;;0.30;;
49177;SDS011;35016;55.674;37.468;2024-03-25T01:06:39;0.80;;;0.40;;
49177;SDS011;35016;55.674;37.468;2024-03-25T01:09:05;0.75;;;0.30;;
49177;SDS011;35016;55.674;37.468;2024-03-25T01:11:33;0.50;;;0.30;;
49177;SDS011;35016;55.674;37.468;2024-03-25T01:14:00;0.93;;;0.38;;
49177;SDS011;35016;55.674;37.468;2024-03-25T01:16:26;0.45;;;0.30;;
49177;SDS011;35016;55.674;37.468;2024-03-25T01:18:53;0.73;;;0.32;;
49177;SDS011;35016;55.674;37.468;2024-03-25T01:21:19;0.32;;;0.20;;
49177;SDS011;35016;55.674;37.468;2024-03-25T01:23:45;2.22;;;0.60;;
49177;SDS011;35016;55.674;37.468;2024-03-25T01:26:11;1.55;;;0.57;;
49177;SDS011;35016;55.674;37.468;2024-03-25T01:28:38;2.58;;;0.60;;
49177;SDS011;35016;55.674;37.468;2024-03-25T01:31:22;1.27;;;0.52;;
49177;SDS011;35016;55.674;37.468;2024-03-25T01:33:48;1.45;;;0.50;;
49177;SDS011;35016;55.674;37.468;2024-03-25T01:36:14;0.20;;;0.20;;
49177;SDS011;35016;55.674;37.468;2024-03-25T01:38:43;0.73;;;0.40;;
49177;SDS011;35016;55.674;37.468;2024-03-25T01:41:10;0.30;;;0.30;;
49177;SDS011;35016;55.674;37.468;2024-03-25T01:43:38;2.22;;;0.50;;
49177;SDS011;35016;55.674;37.468;2024-03-25T01:46:04;0.52;;;0.20;;
49177;SDS011;35016;55.674;37.468;2024-03-25T01:48:31;0.73;;;0.30;;
49177;SDS011;35016;55.674;37.468;2024-03-25T01:50:58;0.98;;;0.47;;
49177;SDS011;35016;55.674;37.468;2024-03-25T01:53:25;0.60;;;0.30;;
49177;SDS011;35016;55.674;37.468;2024-03-25T01:55:55;1.13;;;0.55;;
49177;SDS011;35016;55.674;37.468;2024-03-25T01:58:22;1.15;;;0.38;;
49177;SDS011;35016;55.674;37.468;2024-03-25T02:00:52;0.30;;;0.30;;
49177;SDS011;35016;55.674;37.468;2024-03-25T02:03:20;0.98;;;0.47;;
49177;SDS011;35016;55.674;37.468;2024-03-25T02:05:50;1.52;;;0.55;;
49177;SDS011;35016;55.674;37.468;2024-03-25T02:08:19;1.65;;;0.50;;
49177;SDS011;35016;55.674;37.468;2024-03-25T02:10:45;0.28;;;0.28;;
49177;SDS011;35016;55.674;37.468;2024-03-25T02:13:12;0.35;;;0.30;;
49177;SDS011;35016;55.674;37.468;2024-03-25T02:15:40;0.50;;;0.28;;
49177;SDS011;35016;55.674;37.468;2024-03-25T02:18:07;0.88;;;0.35;;
49177;SDS011;35016;55.674;37.468;2024-03-25T02:20:33;0.52;;;0.38;;
49177;SDS011;35016;55.674;37.468;2024-03-25T02:22:59;1.30;;;0.45;;
49177;SDS011;35016;55.674;37.468;2024-03-25T02:25:25;2.42;;;0.60;;
49177;SDS011;35016;55.674;37.468;2024-03-25T02:27:51;0.45;;;0.32;;
49177;SDS011;35016;55.674;37.468;2024-03-25T02:30:17;1.15;;;0.50;;
49177;SDS011;35016;55.674;37.468;2024-03-25T02:32:43;0.75;;;0.38;;
49177;SDS011;35016;55.674;37.468;2024-03-25T02:35:10;1.52;;;0.50;;
49177;SDS011;35016;55.674;37.468;2024-03-25T02:37:39;0.95;;;0.40;;
49177;SDS011;35016;55.674;37.468;2024-03-25T02:40:08;1.05;;;0.45;;
49177;SDS011;35016;55.674;37.468;2024-03-25T02:42:36;1.27;;;0.45;;
49177;SDS011;35016;55.674;37.468;2024-03-25T02:45:03;0.57;;;0.32;;
49177;SDS011;35016;55.674;37.468;2024-03-25T02:47:31;0.68;;;0.40;;
49177;SDS011;35016;55.674;37.468;2024-03-25T02:49:57;1.00;;;0.50;;
49177;SDS011;35016;55.674;37.468;2024-03-25T02:52:23;2.72;;;0.77;;
49177;SDS011;35016;55.674;37.468;2024-03-25T02:54:50;1.35;;;0.55;;
49177;SDS011;35016;55.674;37.468;2024-03-25T02:57:17;1.00;;;0.40;;
49177;SDS011;35016;55.674;37.468;2024-03-25T02:59:43;2.58;;;0.40;;
49177;SDS011;35016;55.674;37.468;2024-03-25T03:02:09;1.55;;;0.63;;
49177;SDS011;35016;55.674;37.468;2024-03-25T03:04:35;1.52;;;0.50;;
49177;SDS011;35016;55.674;37.468;2024-03-25T03:07:01;1.23;;;0.50;;
49177;SDS011;35016;55.674;37.468;2024-03-25T03:09:27;0.70;;;0.35;;
49177;SDS011;35016;55.674;37.468;2024-03-25T03:11:54;1.00;;;0.50;;
49177;SDS011;35016;55.674;37.468;2024-03-25T03:14:20;1.17;;;0.50;;
49177;SDS011;35016;55.674;37.468;2024-03-25T03:16:46;1.17;;;0.50;;
49177;SDS011;35016;55.674;37.468;2024-03-25T03:19:12;1.08;;;0.43;;
49177;SDS011;35016;55.674;37.468;2024-03-25T03:21:39;0.73;;;0.43;;
49177;SDS011;35016;55.674;37.468;2024-03-25T03:24:05;2.72;;;0.70;;
49177;SDS011;35016;55.674;37.468;2024-03-25T03:26:33;1.52;;;0.57;;
49177;SDS011;35016;55.674;37.468;2024-03-25T03:29:00;1.15;;;0.60;;
49177;SDS011;35016;55.674;37.468;2024-03-25T03:31:26;0.82;;;0.40;;
49177;SDS011;35016;55.674;37.468;2024-03-25T03:33:52;1.98;;;0.60;;
49177;SDS011;35016;55.674;37.468;2024-03-25T03:36:19;0.90;;;0.40;;
49177;SDS011;35016;55.674;37.468;2024-03-25T03:38:50;4.22;;;0.82;;
49177;SDS011;35016;55.674;37.468;2024-03-25T03:41:17;1.85;;;0.75;;
49177;SDS011;35016;55.674;37.468;2024-03-25T03:43:44;1.88;;;0.63;;
49177;SDS011;35016;55.674;37.468;2024-03-25T03:46:11;1.25;;;0.50;;
49177;SDS011;35016;55.674;37.468;2024-03-25T03:48:38;1.20;;;0.50;;
49177;SDS011;35016;55.674;37.468;2024-03-25T03:51:05;2.90;;;0.90;;
49177;SDS011;35016;55.674;37.468;2024-03-25T03:53:32;1.73;;;0.47;;
49177;SDS011;35016;55.674;37.468;2024-03-25T03:56:00;1.35;;;0.50;;
49177;SDS011;35016;55.674;37.468;2024-03-25T03:58:28;1.65;;;0.60;;
49177;SDS011;35016;55.674;37.468;2024-03-25T04:00:55;0.65;;;0.40;;
49177;SDS011;35016;55.674;37.468;2024-03-25T04:03:21;1.35;;;0.60;;
49177;SDS011;35016;55.674;37.468;2024-03-25T04:05:48;0.38;;;0.30;;
49177;SDS011;35016;55.674;37.468;2024-03-25T04:08:14;1.52;;;0.70;;
49177;SDS011;35016;55.674;37.468;2024-03-25T04:10:40;2.50;;;0.70;;
49177;SDS011;35016;55.674;37.468;2024-03-25T04:13:07;1.58;;;0.50;;
49177;SDS011;35016;55.674;37.468;2024-03-25T04:15:34;1.30;;;0.63;;
49177;SDS011;35016;55.674;37.468;2024-03-25T04:18:01;1.60;;;0.57;;
49177;SDS011;35016;55.674;37.468;2024-03-25T04:20:28;3.33;;;0.60;;
49177;SDS011;35016;55.674;37.468;2024-03-25T04:22:56;1.75;;;0.70;;
49177;SDS011;35016;55.674;37.468;2024-03-25T04:25:25;2.47;;;0.57;;
49177;SDS011;35016;55.674;37.468;2024-03-25T04:27:51;2.55;;;0.77;;
49177;SDS011;35016;55.674;37.468;2024-03-25T04:30:17;2.58;;;0.73;;
49177;SDS011;35016;55.674;37.468;2024-03-25T04:32:44;1.48;;;0.73;;
49177;SDS011;35016;55.674;37.468;2024-03-25T04:35:10;2.53;;;0.73;;
49177;SDS011;35016;55.674;37.468;2024-03-25T04:37:36;2.15;;;0.60;;
49177;SDS011;35016;55.674;37.468;2024-03-25T04:40:03;1.90;;;0.60;;
49177;SDS011;35016;55.674;37.468;2024-03-25T04:42:31;2.67;;;0.65;;
49177;SDS011;35016;55.674;37.468;2024-03-25T04:44:58;1.45;;;0.73;;
49177;SDS011;35016;55.674;37.468;2024-03-25T04:47:24;2.47;;;0.90;;
49177;SDS011;35016;55.674;37.468;2024-03-25T04:49:50;3.10;;;0.90;;
49177;SDS011;35016;55.674;37.468;2024-03-25T04:52:17;1.65;;;0.55;;
49177;SDS011;35016;55.674;37.468;2024-03-25T04:54:43;1.65;;;0.73;;
49177;SDS011;35016;55.674;37.468;2024-03-25T04:57:10;1.88;;;0.75;;
49177;SDS011;35016;55.674;37.468;2024-03-25T04:59:36;2.38;;;0.77;;
49177;SDS011;35016;55.674;37.468;2024-03-25T05:02:02;4.78;;;1.10;;
49177;SDS011;35016;55.674;37.468;2024-03-25T05:04:28;2.63;;;0.85;;
49177;SDS011;35016;55.674;37.468;2024-03-25T05:06:55;2.28;;;0.73;;
49177;SDS011;35016;55.674;37.468;2024-03-25T05:09:21;1.98;;;0.70;;
49177;SDS011;35016;55.674;37.468;2024-03-25T05:11:47;5.18;;;1.20;;
49177;SDS011;35016;55.674;37.468;2024-03-25T05:14:13;2.72;;;0.90;;
49177;SDS011;35016;55.674;37.468;2024-03-25T05:16:41;4.25;;;0.95;;
49177;SDS011;35016;55.674;37.468;2024-03-25T05:19:07;1.38;;;0.55;;
49177;SDS011;35016;55.674;37.468;2024-03-25T05:21:33;1.35;;;0.70;;
49177;SDS011;35016;55.674;37.468;2024-03-25T05:23:59;2.67;;;1.00;;
49177;SDS011;35016;55.674;37.468;2024-03-25T05:26:26;3.15;;;0.95;;
49177;SDS011;35016;55.674;37.468;2024-03-25T05:28:55;4.15;;;1.20;;
49177;SDS011;35016;55.674;37.468;2024-03-25T05:31:23;3.95;;;1.05;;
49177;SDS011;35016;55.674;37.468;2024-03-25T05:33:50;3.70;;;1.00;;
49177;SDS011;35016;55.674;37.468;2024-03-25T05:36:17;3.80;;;1.00;;
49177;SDS011;35016;55.674;37.468;2024-03-25T05:38:43;1.45;;;0.60;;
49177;SDS011;35016;55.674;37.468;2024-03-25T05:41:10;2.55;;;1.00;;
49177;SDS011;35016;55.674;37.468;2024-03-25T05:43:37;2.22;;;0.90;;
49177;SDS011;35016;55.674;37.468;2024-03-25T05:46:04;3.85;;;1.63;;
49177;SDS011;35016;55.674;37.468;2024-03-25T05:48:31;3.80;;;1.13;;
49177;SDS011;35016;55.674;37.468;2024-03-25T05:51:00;5.68;;;1.42;;
49177;SDS011;35016;55.674;37.468;2024-03-25T05:53:27;2.60;;;0.75;;
49177;SDS011;35016;55.674;37.468;2024-03-25T05:55:55;2.50;;;0.80;;
49177;SDS011;35016;55.674;37.468;2024-03-25T05:58:22;3.47;;;0.95;;
49177;SDS011;35016;55.674;37.468;2024-03-25T06:00:49;3.50;;;1.23;;
49177;SDS011;35016;55.674;37.468;2024-03-25T06:03:16;4.15;;;1.13;;
49177;SDS011;35016;55.674;37.468;2024-03-25T06:05:51;3.10;;;1.15;;
49177;SDS011;35016;55.674;37.468;2024-03-25T06:08:18;4.97;;;1.33;;
49177;SDS011;35016;55.674;37.468;2024-03-25T06:10:51;2.55;;;0.90;;
49177;SDS011;35016;55.674;37.468;2024-03-25T06:13:19;3.67;;;0.90;;
49177;SDS011;35016;55.674;37.468;2024-03-25T06:15:46;3.53;;;1.10;;
49177;SDS011;35016;55.674;37.468;2024-03-25T06:18:28;2.25;;;0.95;;
49177;SDS011;35016;55.674;37.468;2024-03-25T06:20:55;2.58;;;0.88;;
49177;SDS011;35016;55.674;37.468;2024-03-25T06:23:25;1.85;;;0.65;;
49177;SDS011;35016;55.674;37.468;2024-03-25T06:25:53;2.80;;;0.85;;
49177;SDS011;35016;55.674;37.468;2024-03-25T06:28:20;3.38;;;1.08;;
49177;SDS011;35016;55.674;37.468;2024-03-25T06:30:47;2.53;;;0.93;;
49177;SDS011;35016;55.674;37.468;2024-03-25T06:33:33;3.83;;;1.20;;
49177;SDS011;35016;55.674;37.468;2024-03-25T06:36:21;3.17;;;0.90;;
49177;SDS011;35016;55.674;37.468;2024-03-25T06:38:51;3.42;;;1.30;;
49177;SDS011;35016;55.674;37.468;2024-03-25T06:41:17;3.53;;;1.30;;
49177;SDS011;35016;55.674;37.468;2024-03-25T06:43:44;4.95;;;1.42;;
49177;SDS011;35016;55.674;37.468;2024-03-25T06:46:10;3.03;;;0.90;;
49177;SDS011;35016;55.674;37.468;2024-03-25T06:48:36;4.85;;;1.10;;
49177;SDS011;35016;55.674;37.468;2024-03-25T06:51:05;1.65;;;0.63;;
49177;SDS011;35016;55.674;37.468;2024-03-25T06:53:33;3.15;;;1.08;;
49177;SDS011;35016;55.674;37.468;2024-03-25T06:55:59;3.50;;;1.30;;
49177;SDS011;35016;55.674;37.468;2024-03-25T06:58:27;2.13;;;0.70;;
49177;SDS011;35016;55.674;37.468;2024-03-25T07:00:55;3.15;;;1.05;;
49177;SDS011;35016;55.674;37.468;2024-03-25T07:03:22;2.35;;;1.08;;
49177;SDS011;35016;55.674;37.468;2024-03-25T07:05:50;2.78;;;1.30;;
49177;SDS011;35016;55.674;37.468;2024-03-25T07:08:26;3.50;;;0.93;;
49177;SDS011;35016;55.674;37.468;2024-03-25T07:10:59;4.25;;;1.08;;
49177;SDS011;35016;55.674;37.468;2024-03-25T07:13:25;4.80;;;1.33;;
49177;SDS011;35016;55.674;37.468;2024-03-25T07:15:52;3.10;;;1.15;;
49177;SDS011;35016;55.674;37.468;2024-03-25T07:18:18;3.10;;;1.13;;
49177;SDS011;35016;55.674;37.468;2024-03-25T07:20:44;1.67;;;0.70;;
49177;SDS011;35016;55.674;37.468;2024-03-25T07:23:10;4.32;;;1.33;;
49177;SDS011;35016;55.674;37.468;2024-03-25T07:25:37;3.13;;;1.00;;
49177;SDS011;35016;55.674;37.468;2024-03-25T07:28:03;3.35;;;1.02;;
49177;SDS011;35016;55.674;37.468;2024-03-25T07:30:30;1.92;;;0.80;;
49177;SDS011;35016;55.674;37.468;2024-03-25T07:32:57;6.30;;;1.65;;
49177;SDS011;35016;55.674;37.468;2024-03-25T07:35:25;2.10;;;0.68;;
49177;SDS011;35016;55.674;37.468;2024-03-25T07:37:51;4.10;;;1.25;;
49177;SDS011;35016;55.674;37.468;2024-03-25T07:40:18;4.90;;;1.00;;
49177;SDS011;35016;55.674;37.468;2024-03-25T07:42:45;4.32;;;1.35;;
49177;SDS011;35016;55.674;37.468;2024-03-25T07:45:11;3.58;;;1.10;;
49177;SDS011;35016;55.674;37.468;2024-03-25T07:47:37;4.28;;;1.10;;
49177;SDS011;35016;55.674;37.468;2024-03-25T07:50:04;3.28;;;1.00;;
49177;SDS011;35016;55.674;37.468;2024-03-25T07:52:31;4.88;;;1.15;;
49177;SDS011;35016;55.674;37.468;2024-03-25T07:54:58;2.63;;;0.80;;
49177;SDS011;35016;55.674;37.468;2024-03-25T07:57:24;2.95;;;0.93;;
49177;SDS011;35016;55.674;37.468;2024-03-25T07:59:50;3.15;;;1.00;;
49177;SDS011;35016;55.674;37.468;2024-03-25T08:02:16;7.43;;;1.58;;
49177;SDS011;35016;55.674;37.468;2024-03-25T08:04:44;3.08;;;0.98;;
49177;SDS011;35016;55.674;37.468;2024-03-25T08:07:11;3.30;;;1.02;;
49177;SDS011;35016;55.674;37.468;2024-03-25T08:09:37;1.70;;;0.77;;
49177;SDS011;35016;55.674;37.468;2024-03-25T08:12:03;2.15;;;0.95;;
49177;SDS011;35016;55.674;37.468;2024-03-25T08:14:30;2.33;;;0.85;;
49177;SDS011;35016;55.674;37.468;2024-03-25T08:16:56;4.13;;;0.90;;
49177;SDS011;35016;55.674;37.468;2024-03-25T08:19:22;5.05;;;1.25;;
49177;SDS011;35016;55.674;37.468;2024-03-25T08:21:48;5.40;;;1.30;;
49177;SDS011;35016;55.674;37.468;2024-03-25T08:24:15;5.45;;;1.70;;
49177;SDS011;35016;55.674;37.468;2024-03-25T08:26:44;7.32;;;1.45;;
49177;SDS011;35016;55.674;37.468;2024-03-25T08:29:10;4.05;;;1.25;;
49177;SDS011;35016;55.674;37.468;2024-03-25T08:31:36;6.70;;;1.08;;
49177;SDS011;35016;55.674;37.468;2024-03-25T08:34:02;3.78;;;1.60;;
49177;SDS011;35016;55.674;37.468;2024-03-25T08:36:28;3.88;;;1.23;;
49177;SDS011;35016;55.674;37.468;2024-03-25T08:38:54;2.67;;;0.95;;
49177;SDS011;35016;55.674;37.468;2024-03-25T08:41:20;4.55;;;1.65;;
49177;SDS011;35016;55.674;37.468;2024-03-25T08:43:46;3.35;;;0.90;;
49177;SDS011;35016;55.674;37.468;2024-03-25T08:46:12;5.38;;;1.02;;
49177;SDS011;35016;55.674;37.468;2024-03-25T08:48:39;4.90;;;1.35;;
49177;SDS011;35016;55.674;37.468;2024-03-25T08:51:05;2.47;;;1.02;;
49177;SDS011;35016;55.674;37.468;2024-03-25T08:53:31;4.85;;;1.38;;
49177;SDS011;35016;55.674;37.468;2024-03-25T08:55:57;6.40;;;1.55;;
49177;SDS011;35016;55.674;37.468;2024-03-25T08:58:23;2.55;;;1.00;;
49177;SDS011;35016;55.674;37.468;2024-03-25T09:00:49;3.88;;;1.35;;
49177;SDS011;35016;55.674;37.468;2024-03-25T09:03:15;3.22;;;1.08;;
49177;SDS011;35016;55.674;37.468;2024-03-25T09:05:42;4.07;;;1.42;;
49177;SDS011;35016;55.674;37.468;2024-03-25T09:08:09;5.95;;;1.42;;
49177;SDS011;35016;55.674;37.468;2024-03-25T09:10:39;3.58;;;1.27;;
49177;SDS011;35016;55.674;37.468;2024-03-25T09:13:23;5.22;;;1.55;;
49177;SDS011;35016;55.674;37.468;2024-03-25T09:15:50;2.35;;;0.90;;
49177;SDS011;35016;55.674;37.468;2024-03-25T09:18:20;3.50;;;1.13;;
49177;SDS011;35016;55.674;37.468;2024-03-25T09:20:47;3.58;;;1.13;;
49177;SDS011;35016;55.674;37.468;2024-03-25T09:23:13;5.82;;;1.90;;
49177;SDS011;35016;55.674;37.468;2024-03-25T09:25:40;5.35;;;1.45;;
49177;SDS011;35016;55.674;37.468;2024-03-25T09:28:06;3.58;;;0.98;;
49177;SDS011;35016;55.674;37.468;2024-03-25T09:30:33;3.42;;;0.77;;
49177;SDS011;35016;55.674;37.468;2024-03-25T09:32:59;2.88;;;1.13;;
49177;SDS011;35016;55.674;37.468;2024-03-25T09:35:25;6.18;;;1.60;;
49177;SDS011;35016;55.674;37.468;2024-03-25T09:37:51;4.43;;;1.48;;
49177;SDS011;35016;55.674;37.468;2024-03-25T09:40:17;4.45;;;1.35;;
49177;SDS011;35016;55.674;37.468;2024-03-25T09:42:46;4.55;;;1.85;;
49177;SDS011;35016;55.674;37.468;2024-03-25T09:45:15;4.90;;;1.50;;
49177;SDS011;35016;55.674;37.468;2024-03-25T09:47:46;5.20;;;1.75;;
49177;SDS011;35016;55.674;37.468;2024-03-25T09:50:16;4.13;;;0.98;;
49177;SDS011;35016;55.674;37.468;2024-03-25T09:52:49;4.10;;;1.40;;
49177;SDS011;35016;55.674;37.468;2024-03-25T09:55:22;4.57;;;1.00;;
49177;SDS011;35016;55.674;37.468;2024-03-25T09:57:48;4.30;;;1.40;;
49177;SDS011;35016;55.674;37.468;2024-03-25T10:00:14;3.17;;;1.42;;
49177;SDS011;35016;55.674;37.468;2024-03-25T10:02:44;4.93;;;1.70;;
49177;SDS011;35016;55.674;37.468;2024-03-25T10:05:10;6.80;;;1.80;;
49177;SDS011;35016;55.674;37.468;2024-03-25T10:07:36;6.70;;;2.03;;
49177;SDS011;35016;55.674;37.468;2024-03-25T10:10:03;4.15;;;1.27;;
49177;SDS011;35016;55.674;37.468;2024-03-25T10:12:32;3.30;;;0.93;;
49177;SDS011;35016;55.674;37.468;2024-03-25T10:14:59;3.85;;;1.30;;
49177;SDS011;35016;55.674;37.468;2024-03-25T10:17:25;3.20;;;0.93;;
49177;SDS011;35016;55.674;37.468;2024-03-25T10:19:55;4.43;;;1.17;;
49177;SDS011;35016;55.674;37.468;2024-03-25T10:22:21;5.18;;;1.80;;
49177;SDS011;35016;55.674;37.468;2024-03-25T10:24:47;5.10;;;1.05;;
49177;SDS011;35016;55.674;37.468;2024-03-25T10:29:46;4.40;;;1.17;;
49177;SDS011;35016;55.674;37.468;2024-03-25T10:32:13;4.63;;;1.30;;
49177;SDS011;35016;55.674;37.468;2024-03-25T10:34:40;5.40;;;1.42;;
49177;SDS011;35016;55.674;37.468;2024-03-25T10:37:08;5.05;;;1.13;;
49177;SDS011;35016;55.674;37.468;2024-03-25T10:39:39;3.60;;;1.08;;
49177;SDS011;35016;55.674;37.468;2024-03-25T10:42:20;3.20;;;1.02;;
49177;SDS011;35016;55.674;37.468;2024-03-25T10:45:06;2.97;;;0.88;;
49177;SDS011;35016;55.674;37.468;2024-03-25T10:47:35;4.07;;;1.27;;
49177;SDS011;35016;55.674;37.468;2024-03-25T10:50:07;3.78;;;1.10;;
49177;SDS011;35016;55.674;37.468;2024-03-25T10:52:37;4.22;;;1.35;;
49177;SDS011;35016;55.674;37.468;2024-03-25T10:55:10;3.55;;;1.20;;
49177;SDS011;35016;55.674;37.468;2024-03-25T10:57:36;3.67;;;1.02;;
49177;SDS011;35016;55.674;37.468;2024-03-25T11:00:03;4.47;;;1.17;;
49177;SDS011;35016;55.674;37.468;2024-03-25T11:02:31;5.15;;;1.55;;
49177;SDS011;35016;55.674;37.468;2024-03-25T11:04:57;4.30;;;1.17;;
49177;SDS011;35016;55.674;37.468;2024-03-25T11:07:31;4.32;;;1.42;;
49177;SDS011;35016;55.674;37.468;2024-03-25T11:10:05;6.30;;;1.35;;
49177;SDS011;35016;55.674;37.468;2024-03-25T11:12:34;2.47;;;0.85;;
49177;SDS011;35016;55.674;37.468;2024-03-25T11:15:04;1.83;;;0.90;;
49177;SDS011;35016;55.674;37.468;2024-03-25T11:17:33;3.55;;;1.35;;
49177;SDS011;35016;55.674;37.468;2024-03-25T11:20:09;3.22;;;1.13;;
49177;SDS011;35016;55.674;37.468;2024-03-25T11:22:52;3.75;;;1.10;;
49177;SDS011;35016;55.674;37.468;2024-03-25T11:25:22;4.40;;;1.30;;
49177;SDS011;35016;55.674;37.468;2024-03-25T11:27:48;2.90;;;1.13;;
49177;SDS011;35016;55.674;37.468;2024-03-25T11:30:14;5.25;;;1.63;;
49177;SDS011;35016;55.674;37.468;2024-03-25T11:32:51;4.03;;;1.10;;
49177;SDS011;35016;55.674;37.468;2024-03-25T11:35:24;7.63;;;1.73;;
49177;SDS011;35016;55.674;37.468;2024-03-25T11:37:50;3.55;;;1.00;;
49177;SDS011;35016;55.674;37.468;2024-03-25T11:40:18;4.18;;;1.25;;
49177;SDS011;35016;55.674;37.468;2024-03-25T11:42:45;6.75;;;1.55;;
49177;SDS011;35016;55.674;37.468;2024-03-25T11:45:15;5.30;;;1.67;;
49177;SDS011;35016;55.674;37.468;2024-03-25T11:47:44;5.65;;;1.92;;
49177;SDS011;35016;55.674;37.468;2024-03-25T11:50:12;5.93;;;1.80;;
49177;SDS011;35016;55.674;37.468;2024-03-25T11:52:44;4.55;;;1.27;;
49177;SDS011;35016;55.674;37.468;2024-03-25T11:55:21;4.45;;;1.45;;
49177;SDS011;35016;55.674;37.468;2024-03-25T11:57:54;6.45;;;1.60;;
49177;SDS011;35016;55.674;37.468;2024-03-25T12:00:25;5.25;;;1.25;;
49177;SDS011;35016;55.674;37.468;2024-03-25T12:02:56;5.95;;;1.65;;
49177;SDS011;35016;55.674;37.468;2024-03-25T12:05:33;4.22;;;1.42;;
49177;SDS011;35016;55.674;37.468;2024-03-25T12:08:02;6.07;;;1.73;;
49177;SDS011;35016;55.674;37.468;2024-03-25T12:10:28;4.57;;;1.50;;
49177;SDS011;35016;55.674;37.468;2024-03-25T12:13:14;3.13;;;1.08;;
49177;SDS011;35016;55.674;37.468;2024-03-25T12:15:42;5.28;;;1.40;;
49177;SDS011;35016;55.674;37.468;2024-03-25T12:18:08;3.10;;;1.05;;
49177;SDS011;35016;55.674;37.468;2024-03-25T12:20:35;6.88;;;1.70;;
49177;SDS011;35016;55.674;37.468;2024-03-25T12:23:02;3.88;;;1.58;;
49177;SDS011;35016;55.674;37.468;2024-03-25T12:25:31;6.22;;;1.73;;
49177;SDS011;35016;55.674;37.468;2024-03-25T12:27:58;7.50;;;2.03;;
49177;SDS011;35016;55.674;37.468;2024-03-25T12:30:24;2.95;;;1.08;;
49177;SDS011;35016;55.674;37.468;2024-03-25T12:32:52;4.82;;;1.58;;
49177;SDS011;35016;55.674;37.468;2024-03-25T12:35:20;6.80;;;1.65;;
49177;SDS011;35016;55.674;37.468;2024-03-25T12:37:47;6.68;;;1.80;;
49177;SDS011;35016;55.674;37.468;2024-03-25T12:40:25;5.15;;;1.88;;
49177;SDS011;35016;55.674;37.468;2024-03-25T12:42:57;5.20;;;1.55;;
49177;SDS011;35016;55.674;37.468;2024-03-25T12:45:34;5.00;;;1.50;;
49177;SDS011;35016;55.674;37.468;2024-03-25T12:48:01;6.80;;;1.73;;
49177;SDS011;35016;55.674;37.468;2024-03-25T12:50:27;6.55;;;2.50;;
49177;SDS011;35016;55.674;37.468;2024-03-25T12:52:55;5.97;;;2.03;;
49177;SDS011;35016;55.674;37.468;2024-03-25T12:55:22;5.03;;;1.63;;
49177;SDS011;35016;55.674;37.468;2024-03-25T12:57:48;6.45;;;1.63;;
49177;SDS011;35016;55.674;37.468;2024-03-25T13:00:14;6.00;;;1.95;;
49177;SDS011;35016;55.674;37.468;2024-03-25T13:02:41;4.57;;;1.55;;
49177;SDS011;35016;55.674;37.468;2024-03-25T13:05:07;6.88;;;2.22;;
49177;SDS011;35016;55.674;37.468;2024-03-25T13:07:36;5.68;;;1.92;;
49177;SDS011;35016;55.674;37.468;2024-03-25T13:10:03;7.97;;;2.78;;
49177;SDS011;35016;55.674;37.468;2024-03-25T13:12:31;6.85;;;2.08;;
49177;SDS011;35016;55.674;37.468;2024-03-25T13:15:00;5.88;;;1.90;;
49177;SDS011;35016;55.674;37.468;2024-03-25T13:17:26;6.38;;;2.10;;
49177;SDS011;35016;55.674;37.468;2024-03-25T13:19:52;5.78;;;2.00;;
49177;SDS011;35016;55.674;37.468;2024-03-25T13:22:18;5.78;;;2.10;;
49177;SDS011;35016;55.674;37.468;2024-03-25T13:24:44;5.63;;;1.60;;
49177;SDS011;35016;55.674;37.468;2024-03-25T13:27:10;5.15;;;1.77;;
49177;SDS011;35016;55.674;37.468;2024-03-25T13:29:36;6.72;;;2.33;;
49177;SDS011;35016;55.674;37.468;2024-03-25T13:32:03;5.90;;;2.33;;
49177;SDS011;35016;55.674;37.468;2024-03-25T13:34:29;7.18;;;2.50;;
49177;SDS011;35016;55.674;37.468;2024-03-25T13:36:55;7.90;;;2.22;;
49177;SDS011;35016;55.674;37.468;2024-03-25T13:39:22;7.00;;;2.30;;
49177;SDS011;35016;55.674;37.468;2024-03-25T13:41:49;6.90;;;2.38;;
49177;SDS011;35016;55.674;37.468;2024-03-25T13:44:15;7.32;;;1.95;;
49177;SDS011;35016;55.674;37.468;2024-03-25T13:46:41;5.03;;;1.83;;
49177;SDS011;35016;55.674;37.468;2024-03-25T13:49:07;6.53;;;2.25;;
49177;SDS011;35016;55.674;37.468;2024-03-25T13:51:35;5.45;;;1.88;;
49177;SDS011;35016;55.674;37.468;2024-03-25T13:54:01;9.30;;;2.40;;
49177;SDS011;35016;55.674;37.468;2024-03-25T13:56:28;6.53;;;2.28;;
49177;SDS011;35016;55.674;37.468;2024-03-25T13:58:54;6.53;;;2.05;;
49177;SDS011;35016;55.674;37.468;2024-03-25T14:01:21;6.72;;;1.58;;
49177;SDS011;35016;55.674;37.468;2024-03-25T14:03:47;8.10;;;2.15;;
49177;SDS011;35016;55.674;37.468;2024-03-25T14:06:13;5.95;;;1.88;;
49177;SDS011;35016;55.674;37.468;2024-03-25T14:08:39;6.40;;;2.03;;
49177;SDS011;35016;55.674;37.468;2024-03-25T14:11:07;7.63;;;2.78;;
49177;SDS011;35016;55.674;37.468;2024-03-25T14:13:34;8.88;;;2.53;;
49177;SDS011;35016;55.674;37.468;2024-03-25T14:16:02;5.55;;;1.42;;
49177;SDS011;35016;55.674;37.468;2024-03-25T14:18:28;6.03;;;2.13;;
49177;SDS011;35016;55.674;37.468;2024-03-25T14:20:56;7.93;;;2.80;;
49177;SDS011;35016;55.674;37.468;2024-03-25T14:23:22;6.45;;;1.80;;
49177;SDS011;35016;55.674;37.468;2024-03-25T14:25:49;7.65;;;2.17;;
49177;SDS011;35016;55.674;37.468;2024-03-25T14:28:15;7.45;;;2.00;;
49177;SDS011;35016;55.674;37.468;2024-03-25T14:30:42;5.13;;;1.77;;
49177;SDS011;35016;55.674;37.468;2024-03-25T14:33:08;5.07;;;2.03;;
49177;SDS011;35016;55.674;37.468;2024-03-25T14:35:34;7.85;;;3.20;;
49177;SDS011;35016;55.674;37.468;2024-03-25T14:38:01;7.68;;;3.03;;